Avondale, Maryland
Current Conditions -  °F | °C
As of 10:05 AM on Tuesday 21 Oct 2014 (Local Time) from KCGS Reporting Station
Clear Clear  
Wind Chill: 59°   Ceiling: Unl
Heat Index: 59°   Visibility: 10mi
Dew Point: 50°   Wind: 3mph
Humidity: 72%   Direction: 220°SW
Pressure: 29.88"   Gusts: NA
Location:  38.9677°N, 76.9584°W
Report Text: KCGS 211405Z AUTO 22003KT 10SM CLR 15/10 A2988 RMK AO1
Loading
Personal Weather Stations






























Interactive Weather Map
Tropical Storm Tracking
New forecast layout! Learn more

10-Day Weather Forecast

Advertisements
Track Severe Weather on mobile